Latest Coastal Weather Observations for Port Kembla Harbour

IDN60701

Issued at 7:42 pm EST Monday 22 April 2024 (issued every 10 minutes, with the page automatically refreshed every 10 minutes)

About coastal observations | Map of coastal stations | Coastal observations for NSW | Marine services | Other Formats
Station Details ID: 068253 Name: PORT KEMBLA NTC AWS Lat: -34.47 Lon: 150.91 Height: 0.0 m
Data from the previous 72 hours. | See also: Recent months for locations in New South Wales
Date/Time
EST
Wind Sea
Height
m
Swell Vis
km
Cloud Weather Temp
°C
Press
MSL
hPa
Rain since
9am
mm
Dir  Spd
kts
Gust
kts
Height
m
Period
s
Dir
22/07:30pm N 8 11 - - - - - - - 20.0 1025.6 -
22/07:00pm N 9 12 - - - - - - - 20.4 1025.4 -
22/06:30pm NNE 10 14 - - - - - - - 20.9 1025.2 -
22/06:00pm NNE 10 13 - - - - - - - 20.9 1025.1 -
22/05:30pm NNE 9 12 - - - - - - - 20.9 1025.1 -
22/05:00pm NNE 8 11 - - - - - - - 20.8 1024.9 -
22/04:30pm NNE 8 11 - - - - - - - 20.9 1024.8 -
22/04:00pm NNE 8 12 - - - - - - - 20.8 1024.9 -
22/03:30pm NNE 10 12 - - - - - - - 20.6 1025.2 -
22/03:00pm NNE 9 14 - - - - - - - 20.2 1025.4 -
22/02:30pm NE 5 8 - - - - - - - 20.2 1025.6 -
22/02:00pm NE 6 8 - - - - - - - 19.9 1025.9 -
22/01:30pm NE 6 9 - - - - - - - 19.6 1026.1 -
22/01:00pm NE 6 9 - - - - - - - 19.5 1026.4 -
22/12:30pm NE 5 8 - - - - - - - 19.3 1026.8 -
22/12:00pm ENE 5 7 - - - - - - - 19.1 1027.3 -
22/11:30am E 4 6 - - - - - - - 18.6 1027.7 -
22/11:00am E 3 5 - - - - - - - 18.8 1028.1 -
22/10:30am E 2 4 - - - - - - - 18.8 1028.4 -
22/10:00am ESE 3 5 - - - - - - - 18.6 1028.6 -
22/09:30am SW 3 5 - - - - - - - 18.0 1028.8 -
22/09:00am SW 3 5 - - - - - - - 17.9 1028.8 -
22/08:30am W 3 4 - - - - - - - 17.3 1029.0 -
22/08:00am WSW 3 4 - - - - - - - 16.3 1028.7 -
22/07:30am WSW 4 5 - - - - - - - 15.0 1028.5 -
22/07:00am WSW 3 4 - - - - - - - 14.9 1028.2 -
22/06:30am WSW 2 3 - - - - - - - 14.3 1028.2 -
22/06:00am WSW 3 4 - - - - - - - 14.4 1028.1 -
22/05:30am WSW 3 4 - - - - - - - 14.5 1028.0 -
22/05:00am SW 4 5 - - - - - - - 14.7 1028.0 -
22/04:30am SW 4 6 - - - - - - - 14.8 1028.0 -
22/04:00am SW 5 7 - - - - - - - 15.3 1027.8 -
22/03:30am SW 5 7 - - - - - - - 15.0 1027.8 -
22/03:00am SW 5 6 - - - - - - - 14.8 1027.8 -
22/02:30am SW 5 6 - - - - - - - 15.4 1027.8 -
22/02:00am WSW 3 4 - - - - - - - 15.0 1028.0 -
22/01:30am W 3 4 - - - - - - - 15.0 1028.3 -
22/01:00am SW 5 6 - - - - - - - 15.7 1028.4 -
22/12:30am SW 4 5 - - - - - - - 16.1 1028.6 -
22/12:00am SW 5 6 - - - - - - - 16.2 1028.6 -
 
Date/Time
EST
Wind Sea
Height
m
Swell Vis
km
Cloud Weather Temp
°C
Press
MSL
hPa
Rain since
9am
mm
Dir  Spd
kts
Gust
kts
Height
m
Period
s
Dir
21/11:30pm SW 5 7 - - - - - - - 15.7 1028.6 -
21/11:00pm SW 6 8 - - - - - - - 16.1 1028.7 -
21/10:30pm SW 4 5 - - - - - - - 16.1 1028.8 -
21/10:00pm W 3 4 - - - - - - - 15.7 1028.8 -
21/09:30pm SW 5 6 - - - - - - - 16.1 1028.7 -
21/09:00pm WSW 4 5 - - - - - - - 16.5 1028.5 -
21/08:30pm WSW 4 4 - - - - - - - 16.5 1028.3 -
21/08:00pm WSW 4 5 - - - - - - - 16.9 1028.1 -
21/07:30pm SW 2 3 - - - - - - - 17.6 1028.1 -
21/07:00pm S 2 4 - - - - - - - 18.6 1027.9 -
21/06:30pm S 2 4 - - - - - - - 18.7 1027.7 -
21/06:00pm SSE 3 4 - - - - - - - 18.8 1027.5 -
21/05:30pm SE 4 7 - - - - - - - 19.0 1027.1 -
21/05:00pm ESE 4 7 - - - - - - - 19.1 1026.9 -
21/04:30pm SE 5 9 - - - - - - - 19.1 1026.7 -
21/04:00pm SE 5 9 - - - - - - - 19.0 1026.5 -
21/03:30pm SE 5 8 - - - - - - - 19.4 1026.5 -
21/03:00pm SE 6 8 - - - - - - - 19.2 1026.5 -
21/02:30pm SE 7 9 - - - - - - - 19.1 1026.5 -
21/02:00pm SE 7 12 - - - - - - - 19.3 1026.7 -
21/01:30pm SE 8 14 - - - - - - - 19.4 1026.8 -
21/01:00pm SSE 6 10 - - - - - - - 19.6 1027.0 -
21/12:30pm SSE 7 12 - - - - - - - 19.6 1027.4 -
21/12:00pm SSE 6 10 - - - - - - - 19.4 1027.9 -
21/11:30am SSE 6 10 - - - - - - - 19.5 1028.3 -
21/11:00am S 6 12 - - - - - - - 19.3 1028.7 -
21/10:30am S 6 11 - - - - - - - 19.4 1029.0 -
21/10:00am SSW 6 11 - - - - - - - 19.3 1028.9 -
21/09:30am SSW 8 14 - - - - - - - 18.7 1029.0 -
21/09:00am SW 8 12 - - - - - - - 18.6 1029.1 -
21/08:30am SW 6 11 - - - - - - - 17.8 1029.2 -
21/08:00am WSW 8 11 - - - - - - - 17.3 1029.1 -
21/07:30am SW 7 10 - - - - - - - 16.7 1029.0 -
21/07:00am SW 7 10 - - - - - - - 16.4 1028.6 -
21/06:30am SW 7 10 - - - - - - - 16.5 1028.2 -
21/06:00am SW 5 8 - - - - - - - 16.6 1028.0 -
21/05:30am SW 4 6 - - - - - - - 16.3 1027.8 -
21/05:00am WSW 4 7 - - - - - - - 16.3 1027.6 -
21/04:30am WSW 5 7 - - - - - - - 16.3 1027.4 -
21/04:00am WSW 6 8 - - - - - - - 16.5 1027.2 -
21/03:30am SW 7 9 - - - - - - - 16.4 1027.2 -
21/03:00am SW 8 12 - - - - - - - 16.5 1027.2 -
21/02:30am SW 8 13 - - - - - - - 16.7 1027.2 -
21/02:00am SW 7 11 - - - - - - - 16.9 1027.5 -
21/01:30am SW 7 10 - - - - - - - 16.8 1027.6 -
21/01:00am SW 9 13 - - - - - - - 16.9 1027.6 -
21/12:30am SW 9 13 - - - - - - - 17.1 1027.7 -
21/12:00am SW 10 15 - - - - - - - 17.2 1027.5 -
 
Date/Time
EST
Wind Sea
Height
m
Swell Vis
km
Cloud Weather Temp
°C
Press
MSL
hPa
Rain since
9am
mm
Dir  Spd
kts
Gust
kts
Height
m
Period
s
Dir
20/11:30pm SW 9 12 - - - - - - - 17.0 1027.5 -
20/11:00pm WSW 8 12 - - - - - - - 16.9 1027.5 -
20/10:30pm SW 7 15 - - - - - - - 17.0 1027.7 -
20/10:00pm SW 10 14 - - - - - - - 17.0 1027.7 -
20/09:30pm SW 10 14 - - - - - - - 17.3 1027.6 -
20/09:00pm SW 7 12 - - - - - - - 17.4 1027.6 -
20/08:30pm SSW 10 17 - - - - - - - 18.5 1027.5 -
20/08:00pm S 9 20 - - - - - - - 18.4 1027.4 -
20/07:30pm S 10 18 - - - - - - - 18.4 1027.2 -
20/07:00pm SSW 11 19 - - - - - - - 18.6 1027.1 -
20/06:30pm S 11 22 - - - - - - - 18.4 1026.9 -
20/06:00pm SSW 10 17 - - - - - - - 17.9 1026.5 -
20/05:30pm SW 11 22 - - - - - - - 16.4 1026.2 -
20/05:00pm SW 10 19 - - - - - - - 17.0 1026.2 -
20/04:30pm SSW 9 19 - - - - - - - 17.3 1026.0 -
20/04:00pm SSW 10 21 - - - - - - - 17.7 1025.8 -
20/03:30pm SSW 9 18 - - - - - - - 18.3 1025.6 -
20/03:00pm S 10 18 - - - - - - - 17.8 1025.7 -
20/02:30pm S 10 23 - - - - - - - 17.1 1025.6 -
20/02:00pm S 11 22 - - - - - - - 17.5 1025.3 -
20/01:30pm S 10 24 - - - - - - - 18.6 1024.9 -
20/01:00pm SW 8 18 - - - - - - - 18.0 1024.8 -
20/12:30pm SSW 9 21 - - - - - - - 16.7 1025.4 -
20/12:00pm SSW 10 21 - - - - - - - 17.8 1025.3 -
20/11:30am SSW 10 19 - - - - - - - 17.0 1025.6 -
20/11:00am SSW 10 20 - - - - - - - 16.9 1025.8 -
20/10:30am SW 11 19 - - - - - - - 16.7 1025.7 -
20/10:00am SW 13 22 - - - - - - - 16.2 1025.4 -
20/09:30am SW 12 19 - - - - - - - 16.4 1025.2 -
20/09:00am SW 9 15 - - - - - - - 16.5 1024.9 -
20/08:30am SW 11 20 - - - - - - - 16.3 1024.5 -
20/08:00am SW 11 20 - - - - - - - 16.0 1024.2 -
20/07:30am SW 9 15 - - - - - - - 15.5 1023.9 -
20/07:00am SW 11 17 - - - - - - - 15.6 1023.2 -
20/06:30am SW 10 16 - - - - - - - 15.2 1023.1 -
20/06:00am SW 9 16 - - - - - - - 15.2 1023.0 -
20/05:30am SW 7 12 - - - - - - - 14.9 1022.8 -
20/05:00am SW 11 17 - - - - - - - 14.9 1022.6 -
20/04:30am SW 11 17 - - - - - - - 15.0 1022.1 -
20/04:00am SW 11 18 - - - - - - - 15.1 1022.0 -
20/03:30am SW 8 13 - - - - - - - 15.0 1021.7 -
20/03:00am SW 12 18 - - - - - - - 15.5 1021.6 -
20/02:30am SW 10 16 - - - - - - - 16.0 1021.6 -
20/02:00am SW 11 17 - - - - - - - 15.8 1021.8 -
20/01:30am SW 10 16 - - - - - - - 15.9 1021.7 -
20/01:00am SW 12 18 - - - - - - - 16.0 1021.6 -
20/12:30am SW 12 22 - - - - - - - 16.5 1021.7 -
20/12:00am SW 11 17 - - - - - - - 16.5 1021.6 -
 
Date/Time
EST
Wind Sea
Height
m
Swell Vis
km
Cloud Weather Temp
°C
Press
MSL
hPa
Rain since
9am
mm
Dir  Spd
kts
Gust
kts
Height
m
Period
s
Dir
19/11:30pm SW 13 20 - - - - - - - 17.1 1021.7 -
19/11:00pm SW 9 17 - - - - - - - 17.5 1021.6 -
19/10:30pm SW 9 15 - - - - - - - 17.5 1021.6 -
19/10:00pm SW 8 15 - - - - - - - 17.7 1021.7 -
19/09:30pm SW 9 13 - - - - - - - 17.8 1021.6 -
19/09:00pm SW 9 13 - - - - - - - 17.8 1021.4 -
19/08:30pm SW 8 11 - - - - - - - 17.7 1021.2 -
19/08:00pm SW 7 11 - - - - - - - 17.8 1020.9 -

Other formats

Comma delimited format used in spreadsheet applications
http://www.bom.gov.au/fwo/IDN60701/IDN60701.95745.axf

JavaScript Object Notation format (JSON) in row-major order
http://www.bom.gov.au/fwo/IDN60701/IDN60701.95745.json

Data quality

Most of these data are generated automatically and are frequently updated. Quality checks on data are not normally performed. It is possible for incorrect values to appear. Refer to information at About Latest Weather Observations and please check the disclaimer before using these data.